createdAt,value
2022-07-27T00:01:17.441Z,25.92
2022-07-27T00:03:45.243Z,25.92
2022-07-27T00:06:12.688Z,25.92
2022-07-27T00:08:40.136Z,25.94
2022-07-27T00:11:09.148Z,25.94
2022-07-27T00:13:36.626Z,25.95
2022-07-27T00:16:05.994Z,25.94
2022-07-27T00:18:33.456Z,25.96
2022-07-27T00:21:00.997Z,25.97
2022-07-27T00:23:28.453Z,25.95
2022-07-27T00:25:55.901Z,25.95
2022-07-27T00:28:23.366Z,25.94
2022-07-27T00:30:50.822Z,25.94
2022-07-27T00:33:19.561Z,25.95
2022-07-27T00:35:47.006Z,25.96
2022-07-27T00:38:14.447Z,25.98
2022-07-27T00:40:41.897Z,25.97
2022-07-27T00:43:09.343Z,25.99
2022-07-27T00:45:36.790Z,25.98
2022-07-27T00:48:04.579Z,26.01
2022-07-27T00:50:33.350Z,26.01
2022-07-27T00:53:00.811Z,25.98
2022-07-27T00:55:28.469Z,25.98
2022-07-27T00:57:59.064Z,25.98
2022-07-27T01:00:27.241Z,25.97
2022-07-27T01:02:54.826Z,25.97
2022-07-27T01:05:36.135Z,25.98
2022-07-27T01:08:06.747Z,25.99
2022-07-27T01:10:34.347Z,25.98
2022-07-27T01:13:01.785Z,25.98
2022-07-27T01:15:29.230Z,25.99
2022-07-27T01:17:56.667Z,25.98
2022-07-27T01:20:24.220Z,26.01
2022-07-27T01:22:52.949Z,26.02
2022-07-27T01:25:20.403Z,26.06
2022-07-27T01:27:47.841Z,26.07
2022-07-27T01:30:31.066Z,26.07
2022-07-27T01:33:02.319Z,26.07
2022-07-27T01:35:29.812Z,26.06
2022-07-27T01:37:58.583Z,26.07
2022-07-27T01:40:26.048Z,26.03
2022-07-27T01:42:53.497Z,26.01
2022-07-27T01:45:21.691Z,26.01
2022-07-27T01:47:49.128Z,26.02
2022-07-27T01:50:16.613Z,25.98
2022-07-27T01:52:44.050Z,25.97
2022-07-27T01:55:12.829Z,25.96
2022-07-27T01:57:40.406Z,25.96
2022-07-27T02:00:10.473Z,25.98
2022-07-27T02:02:40.818Z,26.00
2022-07-27T02:05:11.727Z,25.98
2022-07-27T02:07:40.132Z,25.96
2022-07-27T02:10:07.814Z,25.93
2022-07-27T02:12:35.610Z,25.91
2022-07-27T02:15:05.721Z,25.89
2022-07-27T02:17:33.622Z,25.91
2022-07-27T02:20:02.695Z,25.92
2022-07-27T02:22:30.136Z,25.93
2022-07-27T02:24:57.585Z,25.92
2022-07-27T02:27:25.088Z,25.94
2022-07-27T02:29:54.116Z,25.96
2022-07-27T02:32:21.656Z,25.96
2022-07-27T02:34:49.110Z,25.96
2022-07-27T02:37:16.562Z,25.96
2022-07-27T02:39:44.085Z,25.96
2022-07-27T02:42:11.522Z,25.95
2022-07-27T02:44:38.994Z,25.94
2022-07-27T02:47:07.882Z,25.95
2022-07-27T02:49:35.334Z,25.93
2022-07-27T02:52:02.765Z,25.92
2022-07-27T02:54:32.394Z,25.92
2022-07-27T02:57:02.610Z,25.91
2022-07-27T02:59:30.157Z,25.93
2022-07-27T03:01:57.692Z,25.93
2022-07-27T03:04:26.899Z,25.92
2022-07-27T03:06:54.437Z,25.91
2022-07-27T03:09:32.965Z,25.88
2022-07-27T03:12:01.077Z,25.91
2022-07-27T03:14:28.521Z,25.91
2022-07-27T03:16:55.960Z,25.90
2022-07-27T03:19:28.301Z,25.90
2022-07-27T03:21:58.809Z,25.90
2022-07-27T03:24:26.241Z,25.91
2022-07-27T03:26:53.700Z,25.90
2022-07-27T03:29:21.485Z,25.86
2022-07-27T03:31:49.007Z,25.85
2022-07-27T03:34:17.491Z,25.87
2022-07-27T03:36:46.080Z,25.87
2022-07-27T03:39:15.173Z,25.88
2022-07-27T03:41:42.809Z,25.87
2022-07-27T03:44:10.283Z,25.85
2022-07-27T03:46:37.883Z,25.85
2022-07-27T03:49:14.255Z,25.83
2022-07-27T03:51:42.443Z,25.85
2022-07-27T03:54:09.912Z,25.82
2022-07-27T03:56:38.646Z,25.83
2022-07-27T03:59:06.322Z,25.82
2022-07-27T04:01:33.851Z,25.82
2022-07-27T04:04:01.337Z,25.84
2022-07-27T04:06:28.768Z,25.82
2022-07-27T04:08:59.710Z,25.83
2022-07-27T04:11:36.947Z,25.84
2022-07-27T04:14:12.804Z,25.85
2022-07-27T04:16:40.612Z,25.83
2022-07-27T04:19:08.188Z,25.81
2022-07-27T04:21:36.142Z,25.81
2022-07-27T04:24:03.613Z,25.81
2022-07-27T04:26:31.573Z,25.83
2022-07-27T04:28:59.030Z,25.84
2022-07-27T04:31:27.768Z,25.80
2022-07-27T04:33:55.229Z,25.77
2022-07-27T04:36:22.674Z,25.79
2022-07-27T04:38:50.118Z,25.79
2022-07-27T04:41:17.567Z,25.79
2022-07-27T04:43:45.021Z,25.79
2022-07-27T04:46:15.340Z,25.81
2022-07-27T04:48:48.804Z,25.79
2022-07-27T04:51:17.117Z,25.79
2022-07-27T04:53:53.966Z,25.77
2022-07-27T04:56:26.016Z,25.77
2022-07-27T04:58:53.484Z,25.80
2022-07-27T05:01:22.808Z,25.81
2022-07-27T05:03:51.838Z,25.80
2022-07-27T05:06:19.333Z,25.85
2022-07-27T05:08:46.769Z,25.90
2022-07-27T05:11:14.227Z,25.94
2022-07-27T05:13:41.708Z,25.94
2022-07-27T05:16:10.564Z,25.93
2022-07-27T05:18:38.425Z,25.91
2022-07-27T05:21:07.624Z,25.88
2022-07-27T05:23:35.289Z,25.90
2022-07-27T05:26:02.750Z,25.94
2022-07-27T05:28:30.182Z,25.92
2022-07-27T05:30:57.704Z,25.91
2022-07-27T05:33:25.409Z,25.90
2022-07-27T05:35:52.882Z,25.89
2022-07-27T05:38:22.264Z,25.87
2022-07-27T05:40:49.711Z,25.89
2022-07-27T05:43:17.178Z,25.89
2022-07-27T05:45:44.941Z,25.91
2022-07-27T05:48:12.404Z,25.88
2022-07-27T05:50:39.917Z,25.81
2022-07-27T05:53:07.366Z,25.82
2022-07-27T05:55:36.093Z,25.80
2022-07-27T05:58:03.528Z,25.82
2022-07-27T06:00:30.965Z,25.80
2022-07-27T06:02:58.411Z,25.78
2022-07-27T06:05:25.964Z,25.78
2022-07-27T06:08:06.368Z,25.78
2022-07-27T06:10:34.347Z,25.76
2022-07-27T06:13:03.855Z,25.76
2022-07-27T06:15:31.389Z,25.76
2022-07-27T06:17:58.880Z,25.82
2022-07-27T06:20:27.233Z,25.91
2022-07-27T06:22:57.113Z,25.93
2022-07-27T06:25:34.321Z,25.88
2022-07-27T06:28:04.780Z,25.85
2022-07-27T06:30:32.296Z,25.80
2022-07-27T06:32:59.924Z,25.80
2022-07-27T06:35:27.907Z,25.83
2022-07-27T06:37:55.398Z,25.82
2022-07-27T06:40:26.277Z,25.80
2022-07-27T06:42:56.082Z,25.85
2022-07-27T06:45:24.886Z,25.87
2022-07-27T06:47:52.400Z,25.75
2022-07-27T06:50:20.293Z,25.60
2022-07-27T06:52:47.860Z,25.59
2022-07-27T06:55:15.316Z,25.61
2022-07-27T06:57:43.222Z,25.62
2022-07-27T07:00:11.918Z,25.66
2022-07-27T07:02:50.803Z,25.68
2022-07-27T07:05:18.255Z,25.61
2022-07-27T07:07:45.707Z,25.59
2022-07-27T07:10:13.161Z,25.61
2022-07-27T07:12:40.593Z,25.57
2022-07-27T07:15:08.864Z,25.58
2022-07-27T07:17:36.796Z,25.61
2022-07-27T07:20:06.089Z,25.63
2022-07-27T07:22:34.430Z,25.65
2022-07-27T07:25:03.153Z,25.67
2022-07-27T07:27:30.822Z,25.68
2022-07-27T07:29:58.298Z,25.62
2022-07-27T07:32:31.479Z,25.62
2022-07-27T07:35:00.989Z,25.66
2022-07-27T07:37:31.662Z,25.63
2022-07-27T07:40:32.185Z,25.65
2022-07-27T07:42:50.190Z,25.58
2022-07-27T07:45:17.740Z,25.56
2022-07-27T07:47:45.231Z,25.57
2022-07-27T07:50:12.731Z,25.58
2022-07-27T07:52:41.481Z,25.59
2022-07-27T07:55:09.609Z,25.63
2022-07-27T07:57:37.140Z,25.67
2022-07-27T08:00:05.010Z,25.69
2022-07-27T08:02:46.119Z,25.66
2022-07-27T08:05:13.763Z,25.62
2022-07-27T08:07:42.634Z,25.64
2022-07-27T08:10:10.657Z,25.58
2022-07-27T08:12:38.398Z,25.57
2022-07-27T08:15:06.609Z,25.61
2022-07-27T08:17:34.091Z,25.64
2022-07-27T08:20:01.574Z,25.60
2022-07-27T08:22:29.122Z,25.55
2022-07-27T08:24:57.957Z,25.61
2022-07-27T08:27:25.405Z,25.66
2022-07-27T08:29:52.911Z,25.69
2022-07-27T08:32:21.254Z,25.70
2022-07-27T08:34:48.781Z,25.64
2022-07-27T08:37:16.252Z,25.61
2022-07-27T08:42:32.553Z,25.70
2022-07-27T08:45:00.258Z,25.74
2022-07-27T08:47:27.783Z,25.73
2022-07-27T08:49:55.360Z,25.72
2022-07-27T08:52:22.837Z,25.73
2022-07-27T08:54:50.314Z,25.75
2022-07-27T08:57:17.804Z,25.67
2022-07-27T08:59:46.611Z,25.68
2022-07-27T09:02:14.453Z,25.69
2022-07-27T09:04:42.062Z,25.72
2022-07-27T09:07:09.563Z,25.70
2022-07-27T09:09:44.670Z,25.73
2022-07-27T09:12:12.332Z,25.73
2022-07-27T09:14:40.786Z,25.77
2022-07-27T09:20:17.365Z,25.78
2022-07-27T09:22:47.085Z,25.78
2022-07-27T09:25:15.549Z,25.78
2022-07-27T09:27:43.566Z,25.73
2022-07-27T09:30:12.125Z,25.58
2022-07-27T09:32:41.335Z,25.57
2022-07-27T09:35:18.176Z,25.68
2022-07-27T09:37:45.811Z,25.65
2022-07-27T09:40:15.169Z,25.60
2022-07-27T09:43:14.510Z,25.64
2022-07-27T09:45:33.844Z,25.66
2022-07-27T09:48:10.665Z,25.74
2022-07-27T09:50:53.036Z,25.74
2022-07-27T09:53:42.511Z,25.73
2022-07-27T09:56:11.613Z,25.68
2022-07-27T09:58:44.330Z,25.69
2022-07-27T10:01:12.817Z,25.60
2022-07-27T10:03:42.115Z,25.61
2022-07-27T10:06:09.942Z,25.66
2022-07-27T10:08:38.433Z,25.67
2022-07-27T10:11:07.353Z,25.74
2022-07-27T10:13:43.527Z,25.72
2022-07-27T10:16:13.813Z,25.68
2022-07-27T10:18:55.598Z,25.72
2022-07-27T10:21:23.564Z,25.76
2022-07-27T10:23:58.577Z,25.69
2022-07-27T10:26:33.985Z,25.72
2022-07-27T10:29:02.548Z,25.77
2022-07-27T10:31:31.148Z,25.80
2022-07-27T10:34:01.101Z,25.82
2022-07-27T10:36:50.075Z,25.80
2022-07-27T10:39:30.125Z,25.81
2022-07-27T10:42:18.936Z,25.89
2022-07-27T10:44:53.800Z,25.82
2022-07-27T10:47:29.566Z,25.78
2022-07-27T10:50:21.007Z,25.78
2022-07-27T10:52:49.083Z,25.73
2022-07-27T10:55:44.498Z,25.72
2022-07-27T10:58:46.476Z,25.77
2022-07-27T11:01:14.670Z,25.80
2022-07-27T11:03:47.362Z,25.94
2022-07-27T11:06:41.885Z,26.05
2022-07-27T11:10:00.326Z,26.03
2022-07-27T11:12:00.183Z,26.01
2022-07-27T11:14:30.657Z,25.93
2022-07-27T11:17:17.262Z,25.94
2022-07-27T11:19:46.114Z,25.97
2022-07-27T11:22:28.708Z,25.94
2022-07-27T11:24:56.561Z,25.91
2022-07-27T11:27:25.447Z,25.89
2022-07-27T11:29:53.066Z,25.89
2022-07-27T11:32:21.034Z,25.86
2022-07-27T11:34:48.618Z,25.80
2022-07-27T11:37:19.116Z,25.76
2022-07-27T11:40:03.258Z,25.65
2022-07-27T11:42:37.801Z,25.56
2022-07-27T11:45:06.325Z,25.60
2022-07-27T11:47:34.111Z,25.68
2022-07-27T11:50:05.756Z,25.72
2022-07-27T11:52:34.590Z,25.76
2022-07-27T11:55:02.046Z,25.75
2022-07-27T11:57:31.919Z,25.72
2022-07-27T11:59:59.395Z,25.71
2022-07-27T12:02:27.253Z,25.64
2022-07-27T12:05:00.428Z,25.63
2022-07-27T12:07:30.618Z,25.70
2022-07-27T12:09:59.966Z,25.64
2022-07-27T12:12:27.750Z,25.60
2022-07-27T12:14:56.730Z,25.63
2022-07-27T12:17:28.338Z,25.67
2022-07-27T12:19:58.607Z,25.64
2022-07-27T12:22:31.003Z,25.58
2022-07-27T12:25:00.722Z,25.61
2022-07-27T12:27:28.880Z,25.68
2022-07-27T12:30:08.568Z,25.72
2022-07-27T12:32:37.359Z,25.77
2022-07-27T12:35:23.280Z,25.69
2022-07-27T12:37:57.295Z,25.67
2022-07-27T12:40:26.087Z,25.72
2022-07-27T12:42:57.808Z,25.75
2022-07-27T12:45:29.594Z,25.79
2022-07-27T12:48:05.248Z,25.79
2022-07-27T12:50:33.159Z,25.76
2022-07-27T12:53:00.629Z,25.77
2022-07-27T12:55:29.451Z,25.78
2022-07-27T12:57:57.342Z,25.76
2022-07-27T13:00:29.400Z,25.76
2022-07-27T13:03:00.787Z,25.78
2022-07-27T13:05:28.377Z,25.79
2022-07-27T13:07:55.864Z,25.82
2022-07-27T13:10:23.335Z,25.78
2022-07-27T13:12:52.113Z,25.70
2022-07-27T13:15:19.841Z,25.62
2022-07-27T13:17:47.467Z,25.54
2022-07-27T13:20:15.038Z,25.60
2022-07-27T13:22:42.570Z,25.63
2022-07-27T13:25:16.046Z,25.64
2022-07-27T13:27:44.426Z,25.58
2022-07-27T13:30:14.445Z,25.49
2022-07-27T13:32:42.030Z,25.60
2022-07-27T13:35:10.139Z,25.65
2022-07-27T13:37:37.667Z,25.67
2022-07-27T13:40:06.143Z,25.70
2022-07-27T13:42:33.592Z,25.72
2022-07-27T13:45:09.841Z,25.72
2022-07-27T13:47:39.759Z,25.76
2022-07-27T13:50:13.356Z,25.74
2022-07-27T13:52:46.093Z,25.76
2022-07-27T13:55:14.048Z,25.82
2022-07-27T13:57:41.529Z,25.81
2022-07-27T14:00:10.203Z,25.83
2022-07-27T14:02:39.606Z,25.86
2022-07-27T14:05:08.518Z,25.89
2022-07-27T14:07:35.964Z,25.82
2022-07-27T14:10:20.808Z,25.80
2022-07-27T14:12:48.311Z,25.70
2022-07-27T14:15:15.882Z,25.71
2022-07-27T14:17:44.706Z,25.75
2022-07-27T14:20:13.284Z,25.74
2022-07-27T14:22:40.746Z,25.75
2022-07-27T14:25:08.800Z,25.76
2022-07-27T14:27:37.575Z,25.78
2022-07-27T14:30:06.562Z,25.79
2022-07-27T14:32:34.029Z,25.81
2022-07-27T14:35:02.866Z,25.82
2022-07-27T14:37:30.332Z,25.81
2022-07-27T14:39:58.444Z,25.81
2022-07-27T14:42:26.099Z,25.78
2022-07-27T14:44:53.724Z,25.73
2022-07-27T14:47:21.303Z,25.67
2022-07-27T14:49:48.832Z,25.62
2022-07-27T14:52:18.692Z,25.72
2022-07-27T14:54:47.134Z,25.77
2022-07-27T14:57:14.720Z,25.78
2022-07-27T14:59:42.646Z,25.76
2022-07-27T15:02:10.370Z,25.79
2022-07-27T15:04:37.881Z,25.82
2022-07-27T15:07:05.346Z,25.82
2022-07-27T15:09:34.098Z,25.82
2022-07-27T15:12:01.695Z,25.83
2022-07-27T15:14:29.609Z,25.81
2022-07-27T15:16:57.068Z,25.79
2022-07-27T15:19:24.512Z,25.76
2022-07-27T15:21:52.412Z,25.75
2022-07-27T15:24:19.874Z,25.67
2022-07-27T15:26:48.605Z,25.67
2022-07-27T15:29:16.352Z,25.67
2022-07-27T15:31:44.172Z,25.71
2022-07-27T15:34:11.637Z,25.73
2022-07-27T15:36:45.870Z,25.74
2022-07-27T15:39:16.357Z,25.65
2022-07-27T15:41:44.074Z,25.68
2022-07-27T15:44:12.805Z,25.72
2022-07-27T15:46:40.289Z,25.73
2022-07-27T15:49:08.012Z,25.73
2022-07-27T15:51:35.540Z,25.74
2022-07-27T15:54:02.985Z,25.74
2022-07-27T15:56:30.496Z,25.76
2022-07-27T15:58:57.935Z,25.77
2022-07-27T16:01:35.402Z,25.70
2022-07-27T16:04:03.512Z,25.64
2022-07-27T16:06:34.086Z,25.69
2022-07-27T16:09:05.842Z,25.73
2022-07-27T16:11:33.428Z,25.74
2022-07-27T16:14:00.906Z,25.73
2022-07-27T16:16:31.369Z,25.74
2022-07-27T16:19:12.710Z,25.73
2022-07-27T16:21:54.713Z,25.76
2022-07-27T16:24:23.265Z,25.76
2022-07-27T16:26:50.700Z,25.75
2022-07-27T16:29:18.180Z,25.75
2022-07-27T16:31:47.078Z,25.76
2022-07-27T16:34:14.634Z,25.77
2022-07-27T16:36:42.158Z,25.75
2022-07-27T16:39:09.892Z,25.77
2022-07-27T16:41:37.682Z,25.75
2022-07-27T16:44:05.471Z,25.77
2022-07-27T16:46:32.962Z,25.72
2022-07-27T16:49:01.816Z,25.76
2022-07-27T16:51:29.380Z,25.76
2022-07-27T16:53:56.891Z,25.79
2022-07-27T16:56:24.574Z,25.79
2022-07-27T16:58:52.023Z,25.78
2022-07-27T17:01:22.490Z,25.78
2022-07-27T17:03:54.148Z,25.79
2022-07-27T17:06:23.017Z,25.80
2022-07-27T17:08:50.474Z,25.79
2022-07-27T17:11:21.722Z,25.70
2022-07-27T17:13:49.646Z,25.74
2022-07-27T17:16:17.505Z,25.76
2022-07-27T17:18:45.094Z,25.77
2022-07-27T17:21:13.222Z,25.79
2022-07-27T17:23:42.195Z,25.80
2022-07-27T17:26:10.185Z,25.76
2022-07-27T17:28:39.543Z,25.75
2022-07-27T17:31:08.012Z,25.75
2022-07-27T17:33:35.565Z,25.76
2022-07-27T17:36:03.095Z,25.75
2022-07-27T17:38:30.566Z,25.75
2022-07-27T17:40:59.415Z,25.77
2022-07-27T17:43:26.889Z,25.76
2022-07-27T17:45:54.406Z,25.73
2022-07-27T17:48:21.937Z,25.74
2022-07-27T17:50:51.741Z,25.74
2022-07-27T17:53:19.197Z,25.74
2022-07-27T17:55:46.702Z,25.75
2022-07-27T17:58:15.480Z,25.72
2022-07-27T18:00:42.963Z,25.71
2022-07-27T18:03:12.585Z,25.70
2022-07-27T18:05:40.070Z,25.71
2022-07-27T18:08:07.866Z,25.74
2022-07-27T18:10:38.546Z,25.73
2022-07-27T18:13:06.258Z,25.72
2022-07-27T18:15:51.230Z,25.72
2022-07-27T18:18:20.091Z,25.75
2022-07-27T18:20:48.358Z,25.74
2022-07-27T18:23:15.967Z,25.73
2022-07-27T18:25:44.199Z,25.74
2022-07-27T18:28:11.722Z,25.74
2022-07-27T18:30:40.536Z,25.74
2022-07-27T18:33:08.015Z,25.75
2022-07-27T18:35:35.912Z,25.74
2022-07-27T18:38:04.558Z,25.74
2022-07-27T18:40:32.053Z,25.74
2022-07-27T18:42:59.540Z,25.74
2022-07-27T18:45:34.549Z,25.73
2022-07-27T18:48:03.793Z,25.74
2022-07-27T18:50:35.614Z,25.73
2022-07-27T18:53:06.222Z,25.73
2022-07-27T18:55:33.767Z,25.73
2022-07-27T18:58:01.221Z,25.72
2022-07-27T19:00:28.703Z,25.72
2022-07-27T19:02:58.281Z,25.73
2022-07-27T19:05:32.808Z,25.72
2022-07-27T19:08:11.478Z,25.71
2022-07-27T19:10:41.204Z,25.73
2022-07-27T19:13:09.000Z,25.70
2022-07-27T19:15:37.129Z,25.67
2022-07-27T19:18:04.626Z,25.66
2022-07-27T19:20:33.509Z,25.66
2022-07-27T19:23:00.977Z,25.67
2022-07-27T19:25:30.149Z,25.67
2022-07-27T19:27:57.632Z,25.67
2022-07-27T19:30:25.271Z,25.68
2022-07-27T19:32:53.273Z,25.68
2022-07-27T19:35:20.717Z,25.68
2022-07-27T19:37:49.478Z,25.66
2022-07-27T19:43:04.458Z,25.64
2022-07-27T19:45:31.957Z,25.67
2022-07-27T19:48:01.158Z,25.66
2022-07-27T19:50:28.713Z,25.67
2022-07-27T19:52:57.509Z,25.66
2022-07-27T19:55:25.085Z,25.64
2022-07-27T19:57:52.670Z,25.64
2022-07-27T20:00:20.195Z,25.64
2022-07-27T20:02:48.250Z,25.64
2022-07-27T20:05:15.827Z,25.64
2022-07-27T20:07:43.395Z,25.64
2022-07-27T20:10:12.292Z,25.64
2022-07-27T20:12:39.866Z,25.63
2022-07-27T20:15:08.174Z,25.63
2022-07-27T20:17:37.784Z,25.64
2022-07-27T20:20:08.893Z,25.65
2022-07-27T20:22:36.798Z,25.64
2022-07-27T20:25:04.680Z,25.64
2022-07-27T20:27:36.302Z,25.65
2022-07-27T20:30:03.851Z,25.65
2022-07-27T20:32:31.342Z,25.66
2022-07-27T20:34:58.796Z,25.65
2022-07-27T20:37:26.246Z,25.63
2022-07-27T20:39:53.722Z,25.64
2022-07-27T20:42:21.294Z,25.65
2022-07-27T20:44:50.121Z,25.65
2022-07-27T20:47:17.732Z,25.66
2022-07-27T20:49:45.240Z,25.67
2022-07-27T20:52:12.769Z,25.69
2022-07-27T20:54:40.345Z,25.68
2022-07-27T20:57:07.847Z,25.67
2022-07-27T20:59:35.390Z,25.68
2022-07-27T21:02:04.174Z,25.71
2022-07-27T21:04:31.647Z,25.69
2022-07-27T21:06:59.089Z,25.71
2022-07-27T21:09:26.530Z,25.69
2022-07-27T21:11:54.014Z,25.68
2022-07-27T21:14:21.562Z,25.69
2022-07-27T21:16:49.122Z,25.70
2022-07-27T21:19:19.163Z,25.72
2022-07-27T21:21:46.700Z,25.71
2022-07-27T21:24:18.388Z,25.73
2022-07-27T21:26:48.672Z,25.74
2022-07-27T21:29:16.558Z,25.75
2022-07-27T21:31:46.389Z,25.78
2022-07-27T21:34:14.512Z,25.79
2022-07-27T21:36:43.728Z,25.78
2022-07-27T21:39:11.178Z,25.78
2022-07-27T21:41:39.381Z,25.85
2022-07-27T21:44:06.842Z,25.86
2022-07-27T21:46:34.273Z,25.87
2022-07-27T21:49:01.827Z,25.86
2022-07-27T21:51:29.302Z,25.82
2022-07-27T21:53:58.065Z,25.88
2022-07-27T21:56:25.526Z,25.82
2022-07-27T21:58:53.029Z,25.82
2022-07-27T22:01:20.580Z,25.81
2022-07-27T22:03:48.230Z,25.83
2022-07-27T22:06:15.745Z,25.89
2022-07-27T22:08:43.385Z,25.88
2022-07-27T22:11:12.146Z,25.85
2022-07-27T22:13:39.670Z,25.85
2022-07-27T22:16:07.296Z,25.79
2022-07-27T22:18:34.854Z,25.80
2022-07-27T22:21:02.307Z,25.83
2022-07-27T22:23:29.761Z,25.84
2022-07-27T22:25:58.158Z,25.80
2022-07-27T22:28:27.013Z,25.78
2022-07-27T22:31:15.593Z,25.79
2022-07-27T22:33:44.494Z,25.78
2022-07-27T22:36:12.341Z,25.80
2022-07-27T22:38:39.797Z,25.82
2022-07-27T22:41:07.345Z,25.80
2022-07-27T22:43:36.292Z,25.81
2022-07-27T22:46:03.906Z,25.78
2022-07-27T22:48:31.466Z,25.81
2022-07-27T22:50:58.931Z,25.80
2022-07-27T22:53:26.380Z,25.77
2022-07-27T22:55:53.944Z,25.77
2022-07-27T22:58:21.721Z,25.79
2022-07-27T23:00:53.444Z,25.79
2022-07-27T23:03:23.376Z,25.82
2022-07-27T23:05:50.821Z,25.82
2022-07-27T23:08:18.300Z,25.82
2022-07-27T23:10:48.411Z,25.82
2022-07-27T23:13:16.039Z,25.80
2022-07-27T23:15:43.531Z,25.78
2022-07-27T23:18:12.317Z,25.77
2022-07-27T23:20:40.421Z,25.80
2022-07-27T23:23:15.409Z,25.77
2022-07-27T23:25:44.345Z,25.79
2022-07-27T23:28:12.118Z,25.79
2022-07-27T23:30:39.611Z,25.76
2022-07-27T23:33:07.092Z,25.76
2022-07-27T23:35:35.858Z,25.77
2022-07-27T23:38:03.310Z,25.76
2022-07-27T23:40:30.754Z,25.75
2022-07-27T23:42:58.414Z,25.75
2022-07-27T23:45:26.404Z,25.75
2022-07-27T23:47:53.850Z,25.73
2022-07-27T23:50:21.415Z,25.75
2022-07-27T23:52:50.233Z,25.73
2022-07-27T23:55:17.672Z,25.72
2022-07-27T23:57:45.144Z,25.71
